ロンドン/ヒースロー の空港の天気 - METARとTAF

ロンドン・ヒースロー空港 ( EGLL / LHR ) - イギリス ロンドン
飛行場実況気象(Metar)
観測時間07/21 17:50 BST (07/21 16:50 UTC)
風向・風速不定 1m/s
視程10km以上
天気現象
なし
気温27℃
湿度37%
気圧1013hPa
METAREGLL 211650Z AUTO VRB02KT 9999 NCD 27/11 Q1013 NOSIG
過去の天気等 Google飛行場航空写真 Wunderground天気予報

過去48時間のMETAR

飛行場予報(TAF)
発表時間: 7/21 12:03 BST (7/21 11:03 UTC)
予報対象時間: 21日13時 BST ~ 22日19時 BST
風向・風速不定 2m/s
視程10km以上
少しの雲 雲底高度 1070m
21日15時 BST ~ 21日21時 BST に 確率 30% で一時的に
視程8000m
天気現象しゅう雨
22日3時 BST から 確率 30% で
視程6000m
TAF EGLL 211103Z 2112/2218 VRB03KT 9999 FEW035
PROB30 TEMPO 2114/2120 8000 SHRA
PROB30 2202/2208 6000